createdAt,value
2023-01-21T00:01:21.469Z,47.87
2023-01-21T00:03:49.904Z,46.40
2023-01-21T00:06:19.668Z,47.10
2023-01-21T00:08:48.066Z,42.63
2023-01-21T00:11:17.260Z,48.17
2023-01-21T00:13:45.979Z,51.43
2023-01-21T00:16:15.077Z,45.87
2023-01-21T00:18:43.475Z,49.80
2023-01-21T00:21:11.698Z,52.23
2023-01-21T00:23:41.636Z,50.67
2023-01-21T00:26:12.925Z,51.73
2023-01-21T00:28:43.747Z,51.13
2023-01-21T00:31:13.010Z,45.67
2023-01-21T00:33:41.306Z,59.20
2023-01-21T00:36:11.933Z,49.03
2023-01-21T00:38:41.947Z,54.60
2023-01-21T00:41:12.652Z,55.77
2023-01-21T00:43:41.250Z,57.83
2023-01-21T00:46:09.884Z,54.80
2023-01-21T00:48:38.365Z,51.70
2023-01-21T00:51:07.220Z,52.23
2023-01-21T00:53:38.218Z,55.10
2023-01-21T00:56:10.774Z,55.83
2023-01-21T00:58:39.611Z,49.13
2023-01-21T01:01:09.879Z,51.50
2023-01-21T01:03:39.982Z,49.33
2023-01-21T01:06:11.426Z,54.40
2023-01-21T01:08:39.736Z,57.60
2023-01-21T01:11:09.527Z,58.13
2023-01-21T01:13:38.897Z,56.70
2023-01-21T01:16:07.988Z,59.93
2023-01-21T01:18:38.069Z,58.43
2023-01-21T01:21:07.347Z,58.67
2023-01-21T01:23:35.664Z,57.63
2023-01-21T01:26:05.711Z,63.37
2023-01-21T01:28:35.627Z,62.50
2023-01-21T01:31:07.414Z,66.30
2023-01-21T01:33:38.234Z,67.47
2023-01-21T01:36:08.999Z,68.73
2023-01-21T01:38:37.307Z,72.87
2023-01-21T01:41:06.368Z,73.07
2023-01-21T01:43:54.194Z,72.57
2023-01-21T01:46:23.611Z,74.57
2023-01-21T01:49:00.500Z,80.10
2023-01-21T01:51:36.104Z,71.67
2023-01-21T01:54:06.125Z,70.80
2023-01-21T01:56:36.142Z,78.97
2023-01-21T01:59:06.117Z,74.80
2023-01-21T02:01:34.660Z,75.70
2023-01-21T02:04:05.367Z,69.10
2023-01-21T02:06:34.824Z,73.30
2023-01-21T02:09:04.103Z,81.37
2023-01-21T02:11:32.303Z,75.40
2023-01-21T02:14:01.274Z,67.57
2023-01-21T02:17:07.303Z,68.13
2023-01-21T02:20:05.185Z,74.33
2023-01-21T02:22:38.444Z,68.13
2023-01-21T02:25:42.502Z,68.53
2023-01-21T02:29:03.530Z,67.37
2023-01-21T02:31:53.989Z,71.57
2023-01-21T02:34:34.485Z,71.27
2023-01-21T02:37:10.513Z,73.43
2023-01-21T02:40:06.975Z,80.07
2023-01-21T02:42:43.253Z,76.50
2023-01-21T02:45:18.720Z,77.80
2023-01-21T02:47:54.927Z,69.53
2023-01-21T02:50:27.562Z,73.63
2023-01-21T02:53:02.389Z,76.20
2023-01-21T02:55:33.302Z,65.20
2023-01-21T02:58:03.856Z,66.93
2023-01-21T03:00:49.826Z,72.17
2023-01-21T03:03:42.159Z,77.23
2023-01-21T03:06:50.943Z,73.43
2023-01-21T03:09:23.429Z,78.17
2023-01-21T03:12:02.483Z,71.70
2023-01-21T03:14:52.104Z,75.73
2023-01-21T03:17:28.470Z,78.10
2023-01-21T03:20:04.929Z,75.30
2023-01-21T03:22:36.637Z,78.03
2023-01-21T03:25:07.127Z,75.67
2023-01-21T03:27:40.117Z,81.10
2023-01-21T03:30:14.486Z,85.53
2023-01-21T03:32:44.147Z,86.03
2023-01-21T03:35:17.629Z,82.53
2023-01-21T03:37:50.019Z,82.77
2023-01-21T03:40:23.635Z,86.67
2023-01-21T03:42:53.739Z,76.17
2023-01-21T03:45:32.144Z,90.87
2023-01-21T03:48:05.940Z,86.10
2023-01-21T03:50:39.331Z,83.80
2023-01-21T03:53:09.299Z,84.03
2023-01-21T03:55:37.774Z,86.10
2023-01-21T03:58:05.969Z,90.07
2023-01-21T04:00:34.382Z,92.27
2023-01-21T04:03:02.747Z,85.03
2023-01-21T04:05:31.187Z,97.30
2023-01-21T04:07:59.881Z,98.27
2023-01-21T04:10:29.456Z,91.53
2023-01-21T04:12:57.906Z,102.00
2023-01-21T04:15:26.436Z,94.33
2023-01-21T04:17:54.697Z,101.43
2023-01-21T04:20:23.174Z,97.10
2023-01-21T04:22:51.417Z,92.83
2023-01-21T04:25:19.996Z,103.47
2023-01-21T04:27:49.737Z,94.43
2023-01-21T04:30:19.087Z,93.37
2023-01-21T04:32:47.546Z,94.20
2023-01-21T04:35:16.130Z,91.70
2023-01-21T04:37:44.467Z,90.80
2023-01-21T04:40:13.712Z,100.80
2023-01-21T04:42:43.214Z,90.23
2023-01-21T04:45:13.468Z,97.27
2023-01-21T04:47:43.086Z,94.27
2023-01-21T04:50:12.992Z,96.37
2023-01-21T04:52:42.221Z,101.67
2023-01-21T04:55:11.833Z,98.83
2023-01-21T04:57:40.033Z,92.23
2023-01-21T05:00:10.456Z,97.27
2023-01-21T05:02:40.212Z,103.67
2023-01-21T05:05:09.206Z,97.97
2023-01-21T05:07:37.605Z,88.83
2023-01-21T05:10:06.401Z,85.10
2023-01-21T05:12:34.618Z,100.57
2023-01-21T05:15:03.176Z,105.80
2023-01-21T05:17:31.528Z,103.43
2023-01-21T05:20:01.290Z,106.60
2023-01-21T05:22:29.602Z,110.43
2023-01-21T05:24:59.583Z,103.30
2023-01-21T05:27:27.843Z,105.73
2023-01-21T05:29:57.054Z,102.03
2023-01-21T05:32:25.540Z,100.27
2023-01-21T05:34:53.884Z,89.80
2023-01-21T05:37:23.462Z,112.37
2023-01-21T05:39:51.858Z,96.23
2023-01-21T05:42:20.059Z,98.37
2023-01-21T05:44:53.320Z,110.80
2023-01-21T05:47:21.951Z,104.20
2023-01-21T05:49:50.159Z,101.83
2023-01-21T05:52:18.370Z,99.43
2023-01-21T05:55:00.931Z,110.47
2023-01-21T05:57:30.363Z,107.27
2023-01-21T05:59:59.023Z,106.13
2023-01-21T06:02:27.451Z,117.20
2023-01-21T06:04:55.630Z,108.67
2023-01-21T06:07:24.206Z,113.93
2023-01-21T06:09:53.861Z,103.67
2023-01-21T06:12:24.556Z,108.83
2023-01-21T06:14:53.245Z,94.37
2023-01-21T06:17:21.519Z,112.03
2023-01-21T06:19:50.039Z,114.73
2023-01-21T06:22:19.487Z,107.97
2023-01-21T06:24:47.789Z,106.27
2023-01-21T06:27:18.669Z,107.13
2023-01-21T06:29:47.075Z,117.07
2023-01-21T06:32:15.363Z,110.73
2023-01-21T06:34:45.783Z,115.30
2023-01-21T06:37:14.890Z,114.67
2023-01-21T06:39:43.075Z,103.67
2023-01-21T06:42:11.294Z,105.03
2023-01-21T06:44:40.932Z,101.57
2023-01-21T06:47:09.445Z,113.47
2023-01-21T06:49:38.015Z,97.37
2023-01-21T06:52:07.102Z,118.40
2023-01-21T06:54:35.349Z,100.93
2023-01-21T06:57:03.686Z,101.07
2023-01-21T06:59:32.179Z,106.80
2023-01-21T07:02:01.783Z,112.13
2023-01-21T07:04:30.932Z,108.07
2023-01-21T07:06:59.333Z,101.90
2023-01-21T07:09:27.587Z,112.03
2023-01-21T07:11:56.502Z,103.07
2023-01-21T07:14:24.829Z,115.07
2023-01-21T07:16:56.718Z,105.50
2023-01-21T07:19:26.473Z,108.50
2023-01-21T07:21:55.508Z,114.50
2023-01-21T07:24:23.781Z,105.57
2023-01-21T07:26:52.812Z,109.70
2023-01-21T07:29:23.209Z,103.60
2023-01-21T07:31:51.655Z,105.43
2023-01-21T07:34:20.177Z,118.67
2023-01-21T07:36:49.785Z,116.07
2023-01-21T07:39:17.942Z,112.70
2023-01-21T07:41:48.872Z,117.30
2023-01-21T07:44:17.055Z,132.90
2023-01-21T07:46:45.312Z,121.93
2023-01-21T07:49:17.474Z,131.10
2023-01-21T07:51:46.810Z,111.83
2023-01-21T07:54:16.952Z,112.73
2023-01-21T07:56:45.320Z,113.27
2023-01-21T07:59:15.089Z,110.33
2023-01-21T08:01:43.687Z,105.10
2023-01-21T08:04:12.055Z,104.97
2023-01-21T08:06:41.454Z,112.43
2023-01-21T08:09:10.926Z,111.57
2023-01-21T08:11:40.608Z,109.10
2023-01-21T08:14:08.958Z,111.90
2023-01-21T08:16:37.220Z,108.70
2023-01-21T08:19:05.532Z,114.67
2023-01-21T08:21:33.718Z,118.30
2023-01-21T08:24:02.013Z,112.40
2023-01-21T08:26:30.335Z,107.20
2023-01-21T08:29:00.211Z,115.33
2023-01-21T08:31:28.650Z,115.97
2023-01-21T08:33:57.935Z,115.83
2023-01-21T08:36:26.421Z,118.50
2023-01-21T08:38:54.795Z,113.47
2023-01-21T08:41:23.047Z,122.53
2023-01-21T08:43:53.040Z,118.50
2023-01-21T08:46:22.920Z,114.93
2023-01-21T08:48:51.959Z,111.40
2023-01-21T08:51:20.192Z,119.53
2023-01-21T08:53:50.539Z,119.77
2023-01-21T08:56:19.631Z,124.97
2023-01-21T08:58:47.878Z,116.67
2023-01-21T09:01:16.850Z,121.17
2023-01-21T09:03:46.571Z,131.07
2023-01-21T09:06:14.748Z,141.80
2023-01-21T09:08:42.980Z,130.00
2023-01-21T09:11:11.411Z,118.63
2023-01-21T09:13:40.543Z,110.70
2023-01-21T09:16:13.556Z,102.80
2023-01-21T09:18:42.367Z,102.40
2023-01-21T09:21:12.942Z,108.40
2023-01-21T09:23:42.351Z,108.00
2023-01-21T09:26:15.838Z,103.00
2023-01-21T09:28:46.506Z,102.83
2023-01-21T09:31:16.787Z,107.07
2023-01-21T09:33:49.195Z,98.47
2023-01-21T09:36:21.442Z,97.13
2023-01-21T09:38:51.318Z,83.33
2023-01-21T09:41:25.698Z,84.57
2023-01-21T09:44:02.659Z,73.70
2023-01-21T09:46:39.566Z,75.53
2023-01-21T09:49:14.458Z,68.40
2023-01-21T09:51:50.726Z,68.93
2023-01-21T09:54:26.778Z,65.00
2023-01-21T09:57:11.506Z,63.47
2023-01-21T09:59:52.953Z,58.07
2023-01-21T10:02:28.861Z,60.00
2023-01-21T10:05:17.996Z,57.13
2023-01-21T10:07:53.958Z,54.77
2023-01-21T10:10:29.823Z,59.77
2023-01-21T10:13:14.393Z,54.10
2023-01-21T10:16:01.456Z,56.00
2023-01-21T10:18:32.479Z,57.20
2023-01-21T10:21:07.594Z,48.13
2023-01-21T10:23:43.012Z,56.03
2023-01-21T10:26:14.310Z,44.67
2023-01-21T10:28:48.694Z,51.13
2023-01-21T10:31:22.128Z,51.93
2023-01-21T10:33:50.703Z,51.30
2023-01-21T10:36:40.729Z,52.60
2023-01-21T10:39:22.719Z,45.87
2023-01-21T10:42:01.051Z,48.80
2023-01-21T10:44:39.211Z,51.07
2023-01-21T10:47:17.287Z,58.50
2023-01-21T10:49:55.936Z,45.20
2023-01-21T10:52:30.165Z,48.77
2023-01-21T10:55:06.735Z,47.53
2023-01-21T10:57:47.676Z,55.13
2023-01-21T11:00:21.817Z,46.53
2023-01-21T11:03:15.882Z,53.63
2023-01-21T11:05:44.648Z,55.73
2023-01-21T11:08:21.390Z,53.80
2023-01-21T11:10:55.363Z,47.93
2023-01-21T11:13:24.384Z,51.93
2023-01-21T11:15:55.006Z,44.77
2023-01-21T11:18:29.636Z,47.97
2023-01-21T11:21:00.286Z,46.43
2023-01-21T11:23:30.720Z,52.10
2023-01-21T11:26:05.705Z,43.90
2023-01-21T11:28:34.714Z,54.70
2023-01-21T11:31:11.468Z,47.97
2023-01-21T11:33:41.560Z,56.30
2023-01-21T11:36:15.731Z,51.27
2023-01-21T11:38:45.580Z,50.70
2023-01-21T11:41:22.009Z,43.67
2023-01-21T11:43:53.253Z,44.00
2023-01-21T11:46:35.083Z,46.57
2023-01-21T11:49:27.241Z,40.87
2023-01-21T11:52:18.871Z,46.77
2023-01-21T11:54:48.246Z,50.37
2023-01-21T11:57:30.175Z,39.97
2023-01-21T12:00:07.627Z,45.00
2023-01-21T12:02:40.154Z,45.23
2023-01-21T12:05:15.728Z,44.57
2023-01-21T12:07:48.442Z,44.07
2023-01-21T12:10:30.423Z,45.23
2023-01-21T12:13:20.155Z,44.07
2023-01-21T12:16:13.694Z,41.90
2023-01-21T12:19:04.095Z,42.47
2023-01-21T12:21:44.719Z,46.97
2023-01-21T12:24:25.013Z,38.20
2023-01-21T12:27:04.428Z,39.93
2023-01-21T12:29:49.424Z,40.00
2023-01-21T12:32:24.797Z,39.57
2023-01-21T12:34:59.381Z,41.17
2023-01-21T12:37:32.707Z,41.73
2023-01-21T12:40:13.291Z,38.97
2023-01-21T12:42:47.248Z,35.27
2023-01-21T12:45:22.144Z,36.57
2023-01-21T12:47:57.931Z,38.33
2023-01-21T12:50:31.403Z,39.70
2023-01-21T12:53:11.692Z,40.63
2023-01-21T12:55:56.957Z,35.93
2023-01-21T12:58:28.115Z,38.63
2023-01-21T13:01:03.292Z,36.93
2023-01-21T13:03:38.887Z,35.37
2023-01-21T13:06:13.596Z,40.87
2023-01-21T13:08:55.975Z,38.43
2023-01-21T13:11:28.849Z,41.67
2023-01-21T13:14:18.708Z,38.70
2023-01-21T13:16:52.656Z,39.87
2023-01-21T13:19:21.150Z,38.23
2023-01-21T13:21:55.575Z,44.73
2023-01-21T13:24:30.725Z,40.07
2023-01-21T13:27:07.346Z,42.00
2023-01-21T13:29:44.140Z,41.10
2023-01-21T13:32:25.491Z,43.73
2023-01-21T13:35:02.609Z,42.73
2023-01-21T13:37:37.693Z,46.30
2023-01-21T13:40:23.691Z,43.80
2023-01-21T13:43:00.513Z,50.40
2023-01-21T13:45:40.990Z,54.87
2023-01-21T13:48:24.403Z,54.13
2023-01-21T13:51:11.202Z,59.50
2023-01-21T13:53:54.883Z,64.37
2023-01-21T13:56:38.523Z,72.23
2023-01-21T13:59:13.399Z,75.43
2023-01-21T14:01:45.861Z,73.33
2023-01-21T14:04:26.945Z,77.57
2023-01-21T14:07:01.876Z,77.07
2023-01-21T14:09:37.189Z,77.27
2023-01-21T14:12:12.586Z,71.23
2023-01-21T14:15:05.397Z,73.43
2023-01-21T14:18:14.303Z,69.97
2023-01-21T14:21:02.021Z,71.07
2023-01-21T14:24:00.790Z,71.43
2023-01-21T14:26:41.153Z,77.37
2023-01-21T14:29:17.263Z,72.00
2023-01-21T14:31:49.210Z,65.30
2023-01-21T14:34:23.918Z,62.77
2023-01-21T14:37:05.539Z,67.67
2023-01-21T14:39:48.206Z,64.30
2023-01-21T14:42:18.637Z,64.40
2023-01-21T14:45:04.089Z,56.97
2023-01-21T14:47:52.991Z,65.03
2023-01-21T14:50:47.325Z,61.53
2023-01-21T14:53:22.771Z,60.00
2023-01-21T14:56:16.714Z,57.67
2023-01-21T14:58:49.056Z,59.27
2023-01-21T15:01:30.314Z,66.23
2023-01-21T15:03:59.307Z,60.87
2023-01-21T15:06:28.355Z,64.50
2023-01-21T15:09:00.700Z,57.57
2023-01-21T15:11:33.006Z,67.67
2023-01-21T15:14:07.789Z,62.70
2023-01-21T15:16:37.751Z,69.80
2023-01-21T15:19:27.007Z,66.27
2023-01-21T15:22:19.654Z,74.93
2023-01-21T15:25:19.900Z,64.77
2023-01-21T15:28:38.254Z,68.27
2023-01-21T15:31:09.568Z,61.30
2023-01-21T15:33:42.926Z,69.07
2023-01-21T15:36:21.936Z,65.43
2023-01-21T15:38:51.284Z,64.27
2023-01-21T15:41:41.946Z,67.53
2023-01-21T15:44:25.730Z,72.40
2023-01-21T15:47:00.616Z,64.17
2023-01-21T15:49:50.128Z,71.33
2023-01-21T15:52:34.764Z,64.77
2023-01-21T15:55:22.826Z,62.80
2023-01-21T15:58:00.999Z,65.83
2023-01-21T16:00:35.305Z,87.67
2023-01-21T16:03:14.639Z,82.03
2023-01-21T16:05:51.146Z,72.13
2023-01-21T16:08:28.131Z,74.23
2023-01-21T16:11:10.191Z,71.63
2023-01-21T16:13:51.214Z,71.53
2023-01-21T16:16:34.382Z,76.33
2023-01-21T16:19:06.967Z,83.17
2023-01-21T16:21:36.369Z,75.23
2023-01-21T16:24:10.940Z,80.10
2023-01-21T16:26:39.472Z,78.93
2023-01-21T16:29:13.768Z,77.50
2023-01-21T16:32:13.762Z,86.40
2023-01-21T16:34:43.657Z,87.30
2023-01-21T16:37:13.747Z,86.13
2023-01-21T16:39:42.497Z,91.37
2023-01-21T16:42:24.925Z,86.93
2023-01-21T16:44:54.913Z,84.80
2023-01-21T16:47:25.939Z,79.93
2023-01-21T16:49:54.687Z,85.40
2023-01-21T16:52:24.499Z,81.03
2023-01-21T16:54:53.965Z,75.67
2023-01-21T16:57:28.806Z,83.67
2023-01-21T17:00:02.902Z,81.70
2023-01-21T17:02:33.136Z,77.40
2023-01-21T17:05:04.685Z,76.80
2023-01-21T17:07:36.078Z,85.63
2023-01-21T17:10:07.934Z,76.40
2023-01-21T17:12:36.667Z,84.57
2023-01-21T17:15:19.449Z,89.67
2023-01-21T17:17:47.819Z,83.87
2023-01-21T17:20:39.123Z,98.90
2023-01-21T17:23:10.315Z,83.60
2023-01-21T17:25:38.988Z,87.73
2023-01-21T17:28:18.796Z,79.57
2023-01-21T17:30:48.575Z,85.07
2023-01-21T17:33:30.956Z,88.27
2023-01-21T17:36:10.501Z,82.53
2023-01-21T17:38:44.007Z,86.30
2023-01-21T17:41:24.293Z,89.97
2023-01-21T17:43:55.593Z,86.93
2023-01-21T17:46:26.197Z,83.43
2023-01-21T17:48:59.032Z,88.93
2023-01-21T17:51:30.162Z,84.70
2023-01-21T17:54:00.763Z,85.17
2023-01-21T17:56:40.911Z,90.00
2023-01-21T17:59:37.632Z,97.40
2023-01-21T18:02:11.949Z,95.97
2023-01-21T18:04:40.374Z,88.77
2023-01-21T18:07:18.403Z,86.40
2023-01-21T18:09:46.789Z,93.47
2023-01-21T18:12:15.232Z,92.20
2023-01-21T18:14:43.565Z,89.27
2023-01-21T18:17:18.119Z,92.17
2023-01-21T18:19:46.641Z,92.20
2023-01-21T18:22:22.565Z,88.77
2023-01-21T18:24:50.811Z,96.57
2023-01-21T18:27:20.605Z,94.53
2023-01-21T18:29:49.277Z,92.53
2023-01-21T18:32:19.666Z,97.97
2023-01-21T18:34:47.841Z,88.80
2023-01-21T18:37:18.088Z,89.27
2023-01-21T18:39:46.532Z,89.80
2023-01-21T18:42:16.392Z,84.37
2023-01-21T18:44:45.177Z,93.93
2023-01-21T18:47:14.772Z,85.60
2023-01-21T18:49:44.768Z,77.77
2023-01-21T18:52:16.520Z,84.27
2023-01-21T18:54:44.730Z,88.40
2023-01-21T18:57:15.627Z,85.20
2023-01-21T18:59:44.193Z,77.80
2023-01-21T19:02:15.862Z,81.03
2023-01-21T19:04:46.574Z,86.33
2023-01-21T19:07:16.760Z,79.63
2023-01-21T19:09:46.507Z,78.67
2023-01-21T19:12:16.553Z,81.40
2023-01-21T19:14:45.376Z,81.10
2023-01-21T19:17:14.604Z,80.33
2023-01-21T19:19:42.936Z,85.63
2023-01-21T19:22:15.078Z,84.90
2023-01-21T19:24:43.624Z,76.53
2023-01-21T19:27:14.353Z,77.40
2023-01-21T19:29:42.585Z,83.00
2023-01-21T19:32:14.751Z,86.23
2023-01-21T19:34:43.880Z,86.07
2023-01-21T19:37:15.600Z,83.47
2023-01-21T19:39:43.835Z,82.87
2023-01-21T19:42:12.808Z,84.70
2023-01-21T19:44:41.446Z,91.60
2023-01-21T19:47:18.587Z,90.30
2023-01-21T19:49:47.775Z,92.20
2023-01-21T19:52:17.516Z,86.30
2023-01-21T19:54:45.911Z,100.80
2023-01-21T19:57:15.692Z,93.50
2023-01-21T19:59:45.172Z,91.57
2023-01-21T20:02:13.999Z,96.33
2023-01-21T20:04:42.592Z,96.73
2023-01-21T20:07:13.938Z,92.77
2023-01-21T20:09:46.888Z,99.03
2023-01-21T20:12:15.305Z,99.80
2023-01-21T20:14:43.488Z,98.40
2023-01-21T20:17:14.507Z,95.83
2023-01-21T20:19:42.959Z,103.33
2023-01-21T20:22:13.539Z,107.03
2023-01-21T20:24:43.607Z,104.03
2023-01-21T20:27:14.590Z,106.70
2023-01-21T20:29:49.557Z,112.80
2023-01-21T20:32:23.999Z,103.20
2023-01-21T20:34:52.328Z,104.23
2023-01-21T20:37:20.609Z,107.10
2023-01-21T20:39:50.220Z,96.83
2023-01-21T20:42:18.714Z,107.77
2023-01-21T20:44:46.906Z,116.97
2023-01-21T20:47:16.702Z,108.13
2023-01-21T20:49:47.494Z,109.70
2023-01-21T20:52:18.052Z,106.20
2023-01-21T20:54:46.220Z,105.00
2023-01-21T20:57:15.929Z,130.27
2023-01-21T20:59:44.186Z,134.80
2023-01-21T21:02:12.943Z,128.07
2023-01-21T21:04:41.521Z,120.90
2023-01-21T21:07:15.806Z,114.03
2023-01-21T21:09:44.145Z,103.13
2023-01-21T21:12:12.302Z,101.57
2023-01-21T21:14:42.362Z,112.67
2023-01-21T21:17:13.023Z,105.90
2023-01-21T21:19:41.373Z,113.43
2023-01-21T21:22:09.677Z,104.33
2023-01-21T21:24:38.940Z,117.83
2023-01-21T21:27:07.285Z,112.57
2023-01-21T21:29:35.480Z,110.53
2023-01-21T21:32:12.320Z,108.13
2023-01-21T21:34:43.396Z,106.10
2023-01-21T21:37:14.465Z,102.60
2023-01-21T21:39:46.759Z,96.77
2023-01-21T21:42:47.182Z,92.60
2023-01-21T21:45:15.843Z,96.60
2023-01-21T21:48:03.386Z,95.83
2023-01-21T21:50:31.684Z,90.23
2023-01-21T21:52:59.989Z,96.43
2023-01-21T21:55:30.306Z,98.93
2023-01-21T21:57:58.514Z,97.00
2023-01-21T22:00:28.657Z,84.03
2023-01-21T22:03:02.367Z,92.13
2023-01-21T22:05:32.994Z,96.60
2023-01-21T22:08:01.276Z,93.37
2023-01-21T22:10:29.684Z,100.80
2023-01-21T22:12:58.188Z,103.83
2023-01-21T22:15:26.496Z,93.90
2023-01-21T22:17:54.928Z,101.47
2023-01-21T22:20:24.600Z,101.87
2023-01-21T22:22:52.939Z,106.53
2023-01-21T22:25:23.236Z,117.50
2023-01-21T22:27:51.505Z,115.10
2023-01-21T22:30:19.921Z,126.10
2023-01-21T22:32:48.200Z,126.53
2023-01-21T22:35:16.927Z,135.80
2023-01-21T22:37:46.648Z,136.03
2023-01-21T22:40:16.248Z,123.90
2023-01-21T22:42:44.720Z,137.47
2023-01-21T22:45:13.295Z,146.37
2023-01-21T22:47:41.526Z,137.63
2023-01-21T22:50:10.997Z,160.03
2023-01-21T22:52:39.316Z,139.50
2023-01-21T22:55:09.935Z,154.13
2023-01-21T22:57:38.203Z,135.10
2023-01-21T23:00:11.969Z,143.37
2023-01-21T23:02:40.292Z,144.47
2023-01-21T23:05:09.223Z,129.67
2023-01-21T23:07:37.478Z,129.00
2023-01-21T23:10:06.551Z,128.80
2023-01-21T23:12:36.127Z,143.40
2023-01-21T23:15:04.394Z,119.67
2023-01-21T23:17:32.853Z,131.90
2023-01-21T23:20:01.140Z,118.50
2023-01-21T23:22:29.598Z,130.37
2023-01-21T23:24:58.026Z,142.80
2023-01-21T23:27:28.870Z,125.87
2023-01-21T23:29:58.875Z,134.43
2023-01-21T23:32:27.249Z,137.93
2023-01-21T23:34:55.437Z,143.37
2023-01-21T23:37:23.780Z,134.40
2023-01-21T23:39:51.991Z,147.70
2023-01-21T23:42:22.398Z,147.77
2023-01-21T23:44:50.711Z,146.87
2023-01-21T23:47:20.457Z,142.10
2023-01-21T23:49:48.673Z,141.83
2023-01-21T23:52:17.151Z,149.93
2023-01-21T23:54:45.560Z,143.30
2023-01-21T23:57:14.030Z,152.97
2023-01-21T23:59:42.877Z,140.10
